sensor_id;sensor_type;location;lat;lon;timestamp;P1;durP1;ratioP1;P2;durP2;ratioP2
61483;SDS011;47349;55.640;37.692;2022-09-09T00:00:32;1.95;;;1.80;;
61483;SDS011;47349;55.640;37.692;2022-09-09T00:05:55;4.60;;;1.95;;
61483;SDS011;47349;55.640;37.692;2022-09-09T00:12:27;6.30;;;1.90;;
61483;SDS011;47349;55.640;37.692;2022-09-09T00:14:46;3.75;;;1.92;;
61483;SDS011;47349;55.640;37.692;2022-09-09T00:20:19;8.85;;;2.60;;
61483;SDS011;47349;55.640;37.692;2022-09-09T00:22:57;3.83;;;2.05;;
61483;SDS011;47349;55.640;37.692;2022-09-09T00:25:45;2.72;;;1.80;;
61483;SDS011;47349;55.640;37.692;2022-09-09T00:28:26;3.05;;;1.92;;
61483;SDS011;47349;55.640;37.692;2022-09-09T00:30:56;4.20;;;2.22;;
61483;SDS011;47349;55.640;37.692;2022-09-09T00:33:25;5.88;;;2.10;;
61483;SDS011;47349;55.640;37.692;2022-09-09T00:35:54;5.65;;;2.30;;
61483;SDS011;47349;55.640;37.692;2022-09-09T00:43:46;2.72;;;2.30;;
61483;SDS011;47349;55.640;37.692;2022-09-09T00:46:41;4.03;;;2.40;;
61483;SDS011;47349;55.640;37.692;2022-09-09T00:49:32;3.65;;;2.40;;
61483;SDS011;47349;55.640;37.692;2022-09-09T00:52:36;2.28;;;2.05;;
61483;SDS011;47349;55.640;37.692;2022-09-09T00:57:54;2.65;;;1.70;;
61483;SDS011;47349;55.640;37.692;2022-09-09T01:05:36;5.28;;;2.00;;
61483;SDS011;47349;55.640;37.692;2022-09-09T01:20:14;3.05;;;2.10;;
61483;SDS011;47349;55.640;37.692;2022-09-09T01:23:14;3.00;;;1.77;;
61483;SDS011;47349;55.640;37.692;2022-09-09T01:29:01;5.97;;;2.47;;
61483;SDS011;47349;55.640;37.692;2022-09-09T01:31:36;3.20;;;2.08;;
61483;SDS011;47349;55.640;37.692;2022-09-09T01:34:13;3.67;;;1.92;;
61483;SDS011;47349;55.640;37.692;2022-09-09T01:39:17;5.90;;;2.30;;
61483;SDS011;47349;55.640;37.692;2022-09-09T01:41:48;9.55;;;2.33;;
61483;SDS011;47349;55.640;37.692;2022-09-09T01:44:17;4.03;;;2.38;;
61483;SDS011;47349;55.640;37.692;2022-09-09T01:47:05;2.50;;;2.17;;
61483;SDS011;47349;55.640;37.692;2022-09-09T01:50:00;4.22;;;2.35;;
61483;SDS011;47349;55.640;37.692;2022-09-09T01:52:30;2.80;;;2.15;;
61483;SDS011;47349;55.640;37.692;2022-09-09T01:55:00;3.90;;;2.08;;
61483;SDS011;47349;55.640;37.692;2022-09-09T01:57:44;2.40;;;1.77;;
61483;SDS011;47349;55.640;37.692;2022-09-09T02:00:15;3.33;;;2.05;;
61483;SDS011;47349;55.640;37.692;2022-09-09T02:05:44;3.53;;;2.50;;
61483;SDS011;47349;55.640;37.692;2022-09-09T02:11:07;4.55;;;2.75;;
61483;SDS011;47349;55.640;37.692;2022-09-09T02:13:59;4.07;;;2.78;;
61483;SDS011;47349;55.640;37.692;2022-09-09T02:16:39;3.05;;;2.53;;
61483;SDS011;47349;55.640;37.692;2022-09-09T02:19:19;3.80;;;1.83;;
61483;SDS011;47349;55.640;37.692;2022-09-09T02:21:59;2.85;;;2.00;;
61483;SDS011;47349;55.640;37.692;2022-09-09T02:24:29;3.17;;;2.17;;
61483;SDS011;47349;55.640;37.692;2022-09-09T02:27:20;3.75;;;2.38;;
61483;SDS011;47349;55.640;37.692;2022-09-09T02:29:49;2.13;;;1.88;;
61483;SDS011;47349;55.640;37.692;2022-09-09T02:32:31;3.10;;;2.38;;
61483;SDS011;47349;55.640;37.692;2022-09-09T02:35:07;3.53;;;2.67;;
61483;SDS011;47349;55.640;37.692;2022-09-09T02:37:39;5.88;;;2.35;;
61483;SDS011;47349;55.640;37.692;2022-09-09T02:40:10;5.95;;;2.10;;
61483;SDS011;47349;55.640;37.692;2022-09-09T02:42:43;3.25;;;2.05;;
61483;SDS011;47349;55.640;37.692;2022-09-09T02:45:13;4.35;;;2.60;;
61483;SDS011;47349;55.640;37.692;2022-09-09T02:50:57;3.60;;;2.50;;
61483;SDS011;47349;55.640;37.692;2022-09-09T02:53:49;3.35;;;2.85;;
61483;SDS011;47349;55.640;37.692;2022-09-09T02:56:21;3.58;;;2.45;;
61483;SDS011;47349;55.640;37.692;2022-09-09T02:58:54;4.35;;;2.28;;
61483;SDS011;47349;55.640;37.692;2022-09-09T03:01:23;10.50;;;3.15;;
61483;SDS011;47349;55.640;37.692;2022-09-09T03:03:55;3.90;;;1.95;;
61483;SDS011;47349;55.640;37.692;2022-09-09T03:06:22;5.90;;;4.70;;
61483;SDS011;47349;55.640;37.692;2022-09-09T03:09:00;3.13;;;2.28;;
61483;SDS011;47349;55.640;37.692;2022-09-09T03:11:29;6.93;;;2.70;;
61483;SDS011;47349;55.640;37.692;2022-09-09T03:14:00;4.50;;;2.03;;
61483;SDS011;47349;55.640;37.692;2022-09-09T03:16:30;2.55;;;2.05;;
61483;SDS011;47349;55.640;37.692;2022-09-09T03:18:59;7.30;;;2.97;;
61483;SDS011;47349;55.640;37.692;2022-09-09T03:21:28;3.70;;;2.60;;
61483;SDS011;47349;55.640;37.692;2022-09-09T03:23:55;4.78;;;2.58;;
61483;SDS011;47349;55.640;37.692;2022-09-09T03:26:23;2.50;;;2.30;;
61483;SDS011;47349;55.640;37.692;2022-09-09T03:28:52;6.28;;;2.50;;
61483;SDS011;47349;55.640;37.692;2022-09-09T03:31:22;4.72;;;2.83;;
61483;SDS011;47349;55.640;37.692;2022-09-09T03:33:50;3.47;;;2.65;;
61483;SDS011;47349;55.640;37.692;2022-09-09T03:36:20;2.80;;;2.38;;
61483;SDS011;47349;55.640;37.692;2022-09-09T03:38:47;2.95;;;2.30;;
61483;SDS011;47349;55.640;37.692;2022-09-09T03:41:15;3.58;;;2.47;;
61483;SDS011;47349;55.640;37.692;2022-09-09T03:43:42;3.28;;;2.80;;
61483;SDS011;47349;55.640;37.692;2022-09-09T03:46:10;3.88;;;2.83;;
61483;SDS011;47349;55.640;37.692;2022-09-09T03:48:38;4.70;;;2.80;;
61483;SDS011;47349;55.640;37.692;2022-09-09T03:51:05;5.78;;;2.65;;
61483;SDS011;47349;55.640;37.692;2022-09-09T03:53:34;3.40;;;2.83;;
61483;SDS011;47349;55.640;37.692;2022-09-09T03:56:03;3.70;;;2.42;;
61483;SDS011;47349;55.640;37.692;2022-09-09T03:58:33;5.93;;;2.80;;
61483;SDS011;47349;55.640;37.692;2022-09-09T04:01:07;5.32;;;2.72;;
61483;SDS011;47349;55.640;37.692;2022-09-09T04:03:37;5.78;;;2.42;;
61483;SDS011;47349;55.640;37.692;2022-09-09T04:06:07;5.47;;;3.17;;
61483;SDS011;47349;55.640;37.692;2022-09-09T04:08:36;4.80;;;3.45;;
61483;SDS011;47349;55.640;37.692;2022-09-09T04:11:08;3.97;;;2.88;;
61483;SDS011;47349;55.640;37.692;2022-09-09T04:13:50;3.95;;;2.55;;
61483;SDS011;47349;55.640;37.692;2022-09-09T04:16:18;4.18;;;2.30;;
61483;SDS011;47349;55.640;37.692;2022-09-09T04:18:59;6.38;;;3.20;;
61483;SDS011;47349;55.640;37.692;2022-09-09T04:21:26;6.70;;;3.28;;
61483;SDS011;47349;55.640;37.692;2022-09-09T04:23:55;4.20;;;3.28;;
61483;SDS011;47349;55.640;37.692;2022-09-09T04:26:24;4.13;;;2.97;;
61483;SDS011;47349;55.640;37.692;2022-09-09T04:28:51;3.42;;;3.10;;
61483;SDS011;47349;55.640;37.692;2022-09-09T04:31:19;4.10;;;2.35;;
61483;SDS011;47349;55.640;37.692;2022-09-09T04:33:53;4.25;;;2.70;;
61483;SDS011;47349;55.640;37.692;2022-09-09T04:36:21;5.32;;;3.10;;
61483;SDS011;47349;55.640;37.692;2022-09-09T04:38:56;6.95;;;3.00;;
61483;SDS011;47349;55.640;37.692;2022-09-09T04:41:24;3.50;;;2.58;;
61483;SDS011;47349;55.640;37.692;2022-09-09T04:43:53;4.82;;;2.80;;
61483;SDS011;47349;55.640;37.692;2022-09-09T04:46:21;2.97;;;2.55;;
61483;SDS011;47349;55.640;37.692;2022-09-09T04:48:51;3.08;;;2.50;;
61483;SDS011;47349;55.640;37.692;2022-09-09T04:51:21;6.70;;;3.05;;
61483;SDS011;47349;55.640;37.692;2022-09-09T04:54:03;4.30;;;3.45;;
61483;SDS011;47349;55.640;37.692;2022-09-09T04:56:31;9.00;;;3.15;;
61483;SDS011;47349;55.640;37.692;2022-09-09T04:59:00;4.00;;;2.53;;
61483;SDS011;47349;55.640;37.692;2022-09-09T05:01:37;4.22;;;3.60;;
61483;SDS011;47349;55.640;37.692;2022-09-09T05:04:21;5.25;;;2.70;;
61483;SDS011;47349;55.640;37.692;2022-09-09T05:06:49;3.53;;;2.70;;
61483;SDS011;47349;55.640;37.692;2022-09-09T05:09:17;5.25;;;3.20;;
61483;SDS011;47349;55.640;37.692;2022-09-09T05:11:46;6.70;;;3.67;;
61483;SDS011;47349;55.640;37.692;2022-09-09T05:14:23;5.10;;;3.22;;
61483;SDS011;47349;55.640;37.692;2022-09-09T05:16:53;4.68;;;3.03;;
61483;SDS011;47349;55.640;37.692;2022-09-09T05:19:37;7.35;;;3.25;;
61483;SDS011;47349;55.640;37.692;2022-09-09T05:22:19;4.85;;;3.28;;
61483;SDS011;47349;55.640;37.692;2022-09-09T05:24:49;8.38;;;3.08;;
61483;SDS011;47349;55.640;37.692;2022-09-09T05:27:21;4.88;;;3.58;;
61483;SDS011;47349;55.640;37.692;2022-09-09T05:29:57;4.75;;;3.70;;
61483;SDS011;47349;55.640;37.692;2022-09-09T05:32:29;4.35;;;3.45;;
61483;SDS011;47349;55.640;37.692;2022-09-09T05:35:16;4.20;;;3.27;;
61483;SDS011;47349;55.640;37.692;2022-09-09T05:37:58;6.40;;;3.33;;
61483;SDS011;47349;55.640;37.692;2022-09-09T05:40:30;11.32;;;3.70;;
61483;SDS011;47349;55.640;37.692;2022-09-09T05:43:11;4.60;;;2.83;;
61483;SDS011;47349;55.640;37.692;2022-09-09T05:45:40;3.67;;;3.10;;
61483;SDS011;47349;55.640;37.692;2022-09-09T05:48:27;5.70;;;2.75;;
61483;SDS011;47349;55.640;37.692;2022-09-09T05:51:21;4.07;;;2.47;;
61483;SDS011;47349;55.640;37.692;2022-09-09T05:53:56;4.78;;;2.53;;
61483;SDS011;47349;55.640;37.692;2022-09-09T05:56:45;5.38;;;2.90;;
61483;SDS011;47349;55.640;37.692;2022-09-09T05:59:17;4.88;;;2.40;;
61483;SDS011;47349;55.640;37.692;2022-09-09T06:01:45;4.35;;;2.63;;
61483;SDS011;47349;55.640;37.692;2022-09-09T06:04:20;3.50;;;2.15;;
61483;SDS011;47349;55.640;37.692;2022-09-09T06:06:49;2.47;;;2.08;;
61483;SDS011;47349;55.640;37.692;2022-09-09T06:09:18;4.05;;;2.00;;
61483;SDS011;47349;55.640;37.692;2022-09-09T06:11:46;3.17;;;1.80;;
61483;SDS011;47349;55.640;37.692;2022-09-09T06:14:30;4.53;;;2.30;;
61483;SDS011;47349;55.640;37.692;2022-09-09T06:17:12;3.17;;;2.05;;
61483;SDS011;47349;55.640;37.692;2022-09-09T06:19:39;3.25;;;2.00;;
61483;SDS011;47349;55.640;37.692;2022-09-09T06:22:08;3.67;;;2.30;;
61483;SDS011;47349;55.640;37.692;2022-09-09T06:24:53;6.00;;;2.20;;
61483;SDS011;47349;55.640;37.692;2022-09-09T06:27:37;4.75;;;2.10;;
61483;SDS011;47349;55.640;37.692;2022-09-09T06:30:04;4.88;;;2.20;;
61483;SDS011;47349;55.640;37.692;2022-09-09T06:32:33;5.25;;;1.88;;
61483;SDS011;47349;55.640;37.692;2022-09-09T06:35:16;1.50;;;1.27;;
61483;SDS011;47349;55.640;37.692;2022-09-09T06:37:46;4.30;;;1.75;;
61483;SDS011;47349;55.640;37.692;2022-09-09T06:40:30;3.33;;;1.70;;
61483;SDS011;47349;55.640;37.692;2022-09-09T06:43:01;3.05;;;1.50;;
61483;SDS011;47349;55.640;37.692;2022-09-09T06:45:39;1.75;;;1.60;;
61483;SDS011;47349;55.640;37.692;2022-09-09T06:48:09;2.05;;;1.63;;
61483;SDS011;47349;55.640;37.692;2022-09-09T06:50:37;4.40;;;1.67;;
61483;SDS011;47349;55.640;37.692;2022-09-09T06:53:05;1.55;;;1.33;;
61483;SDS011;47349;55.640;37.692;2022-09-09T06:55:41;3.70;;;1.60;;
61483;SDS011;47349;55.640;37.692;2022-09-09T06:58:13;5.20;;;2.22;;
61483;SDS011;47349;55.640;37.692;2022-09-09T07:00:44;4.60;;;1.67;;
61483;SDS011;47349;55.640;37.692;2022-09-09T07:03:14;3.15;;;2.00;;
61483;SDS011;47349;55.640;37.692;2022-09-09T07:05:43;3.60;;;1.48;;
61483;SDS011;47349;55.640;37.692;2022-09-09T07:08:21;3.13;;;1.73;;
61483;SDS011;47349;55.640;37.692;2022-09-09T07:11:04;2.80;;;1.27;;
61483;SDS011;47349;55.640;37.692;2022-09-09T07:13:47;2.10;;;1.40;;
61483;SDS011;47349;55.640;37.692;2022-09-09T07:16:16;1.83;;;1.52;;
61483;SDS011;47349;55.640;37.692;2022-09-09T07:18:48;1.55;;;1.20;;
61483;SDS011;47349;55.640;37.692;2022-09-09T07:21:30;2.42;;;1.30;;
61483;SDS011;47349;55.640;37.692;2022-09-09T07:24:01;1.70;;;1.30;;
61483;SDS011;47349;55.640;37.692;2022-09-09T07:26:42;1.90;;;1.33;;
61483;SDS011;47349;55.640;37.692;2022-09-09T07:29:24;1.48;;;0.90;;
61483;SDS011;47349;55.640;37.692;2022-09-09T07:31:52;3.20;;;1.30;;
61483;SDS011;47349;55.640;37.692;2022-09-09T07:34:26;2.83;;;1.55;;
61483;SDS011;47349;55.640;37.692;2022-09-09T07:37:07;7.68;;;2.50;;
61483;SDS011;47349;55.640;37.692;2022-09-09T07:39:35;4.93;;;1.60;;
61483;SDS011;47349;55.640;37.692;2022-09-09T07:42:04;4.50;;;1.45;;
61483;SDS011;47349;55.640;37.692;2022-09-09T07:44:34;4.55;;;1.38;;
61483;SDS011;47349;55.640;37.692;2022-09-09T07:47:13;2.30;;;1.33;;
61483;SDS011;47349;55.640;37.692;2022-09-09T07:49:49;3.65;;;1.48;;
61483;SDS011;47349;55.640;37.692;2022-09-09T07:52:23;2.83;;;1.52;;
61483;SDS011;47349;55.640;37.692;2022-09-09T07:54:57;2.13;;;1.50;;
61483;SDS011;47349;55.640;37.692;2022-09-09T07:57:38;1.52;;;1.42;;
61483;SDS011;47349;55.640;37.692;2022-09-09T08:00:22;3.78;;;1.73;;
61483;SDS011;47349;55.640;37.692;2022-09-09T08:03:04;2.47;;;1.70;;
61483;SDS011;47349;55.640;37.692;2022-09-09T08:05:33;1.23;;;1.13;;
61483;SDS011;47349;55.640;37.692;2022-09-09T08:08:01;1.55;;;1.33;;
61483;SDS011;47349;55.640;37.692;2022-09-09T08:10:34;4.80;;;1.50;;
61483;SDS011;47349;55.640;37.692;2022-09-09T08:13:02;4.10;;;1.30;;
61483;SDS011;47349;55.640;37.692;2022-09-09T08:15:43;1.80;;;1.30;;
61483;SDS011;47349;55.640;37.692;2022-09-09T08:18:13;2.80;;;1.42;;
61483;SDS011;47349;55.640;37.692;2022-09-09T08:20:55;1.80;;;1.45;;
61483;SDS011;47349;55.640;37.692;2022-09-09T08:23:24;1.25;;;1.10;;
61483;SDS011;47349;55.640;37.692;2022-09-09T08:25:53;5.22;;;1.58;;
61483;SDS011;47349;55.640;37.692;2022-09-09T08:28:29;5.97;;;2.53;;
61483;SDS011;47349;55.640;37.692;2022-09-09T08:31:12;2.28;;;1.27;;
61483;SDS011;47349;55.640;37.692;2022-09-09T08:33:44;2.15;;;1.65;;
61483;SDS011;47349;55.640;37.692;2022-09-09T08:36:29;4.03;;;1.60;;
61483;SDS011;47349;55.640;37.692;2022-09-09T08:39:05;4.05;;;1.65;;
61483;SDS011;47349;55.640;37.692;2022-09-09T08:47:07;1.65;;;1.40;;
61483;SDS011;47349;55.640;37.692;2022-09-09T08:52:57;3.63;;;1.50;;
61483;SDS011;47349;55.640;37.692;2022-09-09T08:55:56;1.77;;;1.27;;
61483;SDS011;47349;55.640;37.692;2022-09-09T08:58:47;2.53;;;1.80;;
61483;SDS011;47349;55.640;37.692;2022-09-09T09:04:59;5.75;;;2.03;;
61483;SDS011;47349;55.640;37.692;2022-09-09T09:14:00;3.92;;;1.40;;
61483;SDS011;47349;55.640;37.692;2022-09-09T09:19:22;1.35;;;1.10;;
61483;SDS011;47349;55.640;37.692;2022-09-09T09:27:57;2.13;;;1.40;;
61483;SDS011;47349;55.640;37.692;2022-09-09T09:30:42;2.35;;;1.30;;
61483;SDS011;47349;55.640;37.692;2022-09-09T09:36:10;1.67;;;1.58;;
61483;SDS011;47349;55.640;37.692;2022-09-09T09:38:54;2.67;;;1.67;;
61483;SDS011;47349;55.640;37.692;2022-09-09T09:41:42;1.90;;;1.23;;
61483;SDS011;47349;55.640;37.692;2022-09-09T09:47:18;1.13;;;1.02;;
61483;SDS011;47349;55.640;37.692;2022-09-09T09:50:16;2.45;;;1.48;;
61483;SDS011;47349;55.640;37.692;2022-09-09T09:53:16;1.63;;;1.15;;
61483;SDS011;47349;55.640;37.692;2022-09-09T09:56:01;3.25;;;1.40;;
61483;SDS011;47349;55.640;37.692;2022-09-09T09:58:50;6.63;;;1.55;;
61483;SDS011;47349;55.640;37.692;2022-09-09T10:01:31;3.35;;;1.30;;
61483;SDS011;47349;55.640;37.692;2022-09-09T10:04:22;1.40;;;1.20;;
61483;SDS011;47349;55.640;37.692;2022-09-09T10:07:18;1.85;;;1.30;;
61483;SDS011;47349;55.640;37.692;2022-09-09T10:09:58;3.30;;;1.33;;
61483;SDS011;47349;55.640;37.692;2022-09-09T10:13:00;2.80;;;1.30;;
61483;SDS011;47349;55.640;37.692;2022-09-09T10:21:43;2.33;;;1.63;;
61483;SDS011;47349;55.640;37.692;2022-09-09T10:34:08;4.10;;;2.10;;
61483;SDS011;47349;55.640;37.692;2022-09-09T10:36:58;2.60;;;1.30;;
61483;SDS011;47349;55.640;37.692;2022-09-09T10:42:07;1.75;;;1.25;;
61483;SDS011;47349;55.640;37.692;2022-09-09T10:55:59;2.60;;;1.30;;
61483;SDS011;47349;55.640;37.692;2022-09-09T10:58:55;1.73;;;1.52;;
61483;SDS011;47349;55.640;37.692;2022-09-09T11:01:48;1.98;;;1.50;;
61483;SDS011;47349;55.640;37.692;2022-09-09T11:04:34;2.85;;;1.83;;
61483;SDS011;47349;55.640;37.692;2022-09-09T11:07:08;1.40;;;1.30;;
61483;SDS011;47349;55.640;37.692;2022-09-09T11:10:02;1.65;;;1.48;;
61483;SDS011;47349;55.640;37.692;2022-09-09T11:12:36;2.45;;;2.03;;
61483;SDS011;47349;55.640;37.692;2022-09-09T11:15:21;4.90;;;2.65;;
61483;SDS011;47349;55.640;37.692;2022-09-09T11:17:56;2.47;;;1.42;;
61483;SDS011;47349;55.640;37.692;2022-09-09T11:20:28;3.35;;;1.73;;
61483;SDS011;47349;55.640;37.692;2022-09-09T11:23:13;1.85;;;1.38;;
61483;SDS011;47349;55.640;37.692;2022-09-09T11:25:49;5.72;;;1.35;;
61483;SDS011;47349;55.640;37.692;2022-09-09T11:35:17;2.40;;;1.40;;
61483;SDS011;47349;55.640;37.692;2022-09-09T11:40:57;7.50;;;3.38;;
61483;SDS011;47349;55.640;37.692;2022-09-09T11:43:40;1.50;;;1.13;;
61483;SDS011;47349;55.640;37.692;2022-09-09T11:46:22;2.20;;;1.63;;
61483;SDS011;47349;55.640;37.692;2022-09-09T11:49:04;3.45;;;1.30;;
61483;SDS011;47349;55.640;37.692;2022-09-09T11:51:33;6.28;;;2.15;;
61483;SDS011;47349;55.640;37.692;2022-09-09T11:56:57;2.03;;;1.33;;
61483;SDS011;47349;55.640;37.692;2022-09-09T11:59:29;1.95;;;1.40;;
61483;SDS011;47349;55.640;37.692;2022-09-09T12:04:46;2.92;;;1.65;;
61483;SDS011;47349;55.640;37.692;2022-09-09T12:07:29;3.38;;;1.33;;
61483;SDS011;47349;55.640;37.692;2022-09-09T12:10:32;1.38;;;1.20;;
61483;SDS011;47349;55.640;37.692;2022-09-09T12:13:23;4.03;;;1.48;;
61483;SDS011;47349;55.640;37.692;2022-09-09T12:16:26;3.05;;;1.50;;
61483;SDS011;47349;55.640;37.692;2022-09-09T12:21:58;1.20;;;1.02;;
61483;SDS011;47349;55.640;37.692;2022-09-09T12:24:35;2.03;;;1.05;;
61483;SDS011;47349;55.640;37.692;2022-09-09T12:27:17;2.20;;;1.20;;
61483;SDS011;47349;55.640;37.692;2022-09-09T12:30:09;4.32;;;1.40;;
61483;SDS011;47349;55.640;37.692;2022-09-09T12:32:40;5.28;;;1.98;;
61483;SDS011;47349;55.640;37.692;2022-09-09T12:35:13;6.50;;;2.10;;
61483;SDS011;47349;55.640;37.692;2022-09-09T12:37:52;4.35;;;2.20;;
61483;SDS011;47349;55.640;37.692;2022-09-09T12:40:30;12.43;;;3.28;;
61483;SDS011;47349;55.640;37.692;2022-09-09T12:43:16;4.57;;;2.10;;
61483;SDS011;47349;55.640;37.692;2022-09-09T12:45:47;1.98;;;1.52;;
61483;SDS011;47349;55.640;37.692;2022-09-09T12:48:27;1.95;;;1.58;;
61483;SDS011;47349;55.640;37.692;2022-09-09T12:51:01;4.75;;;1.95;;
61483;SDS011;47349;55.640;37.692;2022-09-09T12:53:36;6.55;;;1.73;;
61483;SDS011;47349;55.640;37.692;2022-09-09T12:56:23;5.15;;;1.67;;
61483;SDS011;47349;55.640;37.692;2022-09-09T12:59:17;3.70;;;1.70;;
61483;SDS011;47349;55.640;37.692;2022-09-09T13:02:15;1.45;;;1.10;;
61483;SDS011;47349;55.640;37.692;2022-09-09T13:04:51;1.67;;;1.42;;
61483;SDS011;47349;55.640;37.692;2022-09-09T13:07:20;1.50;;;1.30;;
61483;SDS011;47349;55.640;37.692;2022-09-09T13:10:05;2.05;;;1.58;;
61483;SDS011;47349;55.640;37.692;2022-09-09T13:12:41;2.25;;;1.25;;
61483;SDS011;47349;55.640;37.692;2022-09-09T13:15:16;2.00;;;1.20;;
61483;SDS011;47349;55.640;37.692;2022-09-09T13:18:07;7.75;;;1.98;;
61483;SDS011;47349;55.640;37.692;2022-09-09T13:23:33;11.53;;;3.03;;
61483;SDS011;47349;55.640;37.692;2022-09-09T13:26:20;7.30;;;1.98;;
61483;SDS011;47349;55.640;37.692;2022-09-09T13:29:16;11.65;;;3.33;;
61483;SDS011;47349;55.640;37.692;2022-09-09T13:31:47;2.45;;;2.03;;
61483;SDS011;47349;55.640;37.692;2022-09-09T13:34:26;3.95;;;2.00;;
61483;SDS011;47349;55.640;37.692;2022-09-09T13:37:20;5.85;;;2.70;;
61483;SDS011;47349;55.640;37.692;2022-09-09T13:40:24;12.48;;;2.17;;
61483;SDS011;47349;55.640;37.692;2022-09-09T13:42:56;12.13;;;4.50;;
61483;SDS011;47349;55.640;37.692;2022-09-09T13:45:31;5.05;;;2.33;;
61483;SDS011;47349;55.640;37.692;2022-09-09T13:48:17;2.17;;;1.70;;
61483;SDS011;47349;55.640;37.692;2022-09-09T13:51:02;4.20;;;1.83;;
61483;SDS011;47349;55.640;37.692;2022-09-09T13:53:38;3.83;;;2.00;;
61483;SDS011;47349;55.640;37.692;2022-09-09T13:56:07;6.88;;;2.40;;
61483;SDS011;47349;55.640;37.692;2022-09-09T13:58:41;4.68;;;1.80;;
61483;SDS011;47349;55.640;37.692;2022-09-09T14:01:25;3.35;;;1.40;;
61483;SDS011;47349;55.640;37.692;2022-09-09T14:03:55;4.57;;;2.60;;
61483;SDS011;47349;55.640;37.692;2022-09-09T14:06:40;5.85;;;2.00;;
61483;SDS011;47349;55.640;37.692;2022-09-09T14:09:24;6.35;;;1.95;;
61483;SDS011;47349;55.640;37.692;2022-09-09T14:12:11;7.82;;;1.88;;
61483;SDS011;47349;55.640;37.692;2022-09-09T14:14:41;6.18;;;2.33;;
61483;SDS011;47349;55.640;37.692;2022-09-09T14:17:36;4.00;;;1.83;;
61483;SDS011;47349;55.640;37.692;2022-09-09T14:20:06;4.32;;;2.20;;
61483;SDS011;47349;55.640;37.692;2022-09-09T14:22:39;4.15;;;2.10;;
61483;SDS011;47349;55.640;37.692;2022-09-09T14:25:21;9.77;;;2.25;;
61483;SDS011;47349;55.640;37.692;2022-09-09T14:27:55;5.32;;;2.33;;
61483;SDS011;47349;55.640;37.692;2022-09-09T14:31:00;11.15;;;2.00;;
61483;SDS011;47349;55.640;37.692;2022-09-09T14:33:35;3.28;;;1.92;;
61483;SDS011;47349;55.640;37.692;2022-09-09T14:36:19;6.07;;;2.00;;
61483;SDS011;47349;55.640;37.692;2022-09-09T14:38:51;2.33;;;1.60;;
61483;SDS011;47349;55.640;37.692;2022-09-09T14:41:33;4.90;;;1.80;;
61483;SDS011;47349;55.640;37.692;2022-09-09T14:44:20;6.55;;;1.63;;
61483;SDS011;47349;55.640;37.692;2022-09-09T14:47:04;4.38;;;1.83;;
61483;SDS011;47349;55.640;37.692;2022-09-09T14:49:36;2.67;;;1.58;;
61483;SDS011;47349;55.640;37.692;2022-09-09T14:52:10;2.45;;;1.80;;
61483;SDS011;47349;55.640;37.692;2022-09-09T14:54:53;2.90;;;1.30;;
61483;SDS011;47349;55.640;37.692;2022-09-09T14:57:21;3.72;;;1.10;;
61483;SDS011;47349;55.640;37.692;2022-09-09T14:59:55;2.95;;;1.77;;
61483;SDS011;47349;55.640;37.692;2022-09-09T15:02:33;1.90;;;1.30;;
61483;SDS011;47349;55.640;37.692;2022-09-09T15:05:04;1.90;;;1.70;;
61483;SDS011;47349;55.640;37.692;2022-09-09T15:08:03;9.60;;;2.95;;
61483;SDS011;47349;55.640;37.692;2022-09-09T15:11:16;3.78;;;1.90;;
61483;SDS011;47349;55.640;37.692;2022-09-09T15:13:57;3.10;;;2.05;;
61483;SDS011;47349;55.640;37.692;2022-09-09T15:16:39;2.65;;;2.28;;
61483;SDS011;47349;55.640;37.692;2022-09-09T15:19:20;2.90;;;1.45;;
61483;SDS011;47349;55.640;37.692;2022-09-09T15:21:48;4.95;;;1.80;;
61483;SDS011;47349;55.640;37.692;2022-09-09T15:24:24;4.75;;;2.10;;
61483;SDS011;47349;55.640;37.692;2022-09-09T15:26:57;3.00;;;2.00;;
61483;SDS011;47349;55.640;37.692;2022-09-09T15:29:41;13.93;;;3.20;;
61483;SDS011;47349;55.640;37.692;2022-09-09T15:32:14;4.47;;;2.15;;
61483;SDS011;47349;55.640;37.692;2022-09-09T15:34:43;6.75;;;2.13;;
61483;SDS011;47349;55.640;37.692;2022-09-09T15:37:10;4.53;;;2.80;;
61483;SDS011;47349;55.640;37.692;2022-09-09T15:39:41;4.75;;;1.80;;
61483;SDS011;47349;55.640;37.692;2022-09-09T15:42:12;5.35;;;2.15;;
61483;SDS011;47349;55.640;37.692;2022-09-09T15:44:42;5.95;;;1.90;;
61483;SDS011;47349;55.640;37.692;2022-09-09T15:47:19;2.78;;;1.70;;
61483;SDS011;47349;55.640;37.692;2022-09-09T15:49:49;2.40;;;1.50;;
61483;SDS011;47349;55.640;37.692;2022-09-09T15:52:17;3.80;;;2.00;;
61483;SDS011;47349;55.640;37.692;2022-09-09T15:54:47;6.95;;;2.70;;
61483;SDS011;47349;55.640;37.692;2022-09-09T15:57:23;3.03;;;2.50;;
61483;SDS011;47349;55.640;37.692;2022-09-09T15:59:54;6.18;;;3.20;;
61483;SDS011;47349;55.640;37.692;2022-09-09T16:02:39;6.30;;;3.42;;
61483;SDS011;47349;55.640;37.692;2022-09-09T16:05:06;7.72;;;3.30;;
61483;SDS011;47349;55.640;37.692;2022-09-09T16:07:34;8.95;;;3.80;;
61483;SDS011;47349;55.640;37.692;2022-09-09T16:10:03;7.10;;;4.20;;
61483;SDS011;47349;55.640;37.692;2022-09-09T16:12:30;11.80;;;4.10;;
61483;SDS011;47349;55.640;37.692;2022-09-09T16:15:07;7.63;;;2.60;;
61483;SDS011;47349;55.640;37.692;2022-09-09T16:17:35;5.90;;;2.53;;
61483;SDS011;47349;55.640;37.692;2022-09-09T16:20:06;11.00;;;3.10;;
61483;SDS011;47349;55.640;37.692;2022-09-09T16:22:35;9.55;;;2.90;;
61483;SDS011;47349;55.640;37.692;2022-09-09T16:25:06;6.07;;;3.35;;
61483;SDS011;47349;55.640;37.692;2022-09-09T16:27:36;4.75;;;2.00;;
61483;SDS011;47349;55.640;37.692;2022-09-09T16:30:09;3.53;;;1.95;;
61483;SDS011;47349;55.640;37.692;2022-09-09T16:32:38;4.47;;;2.22;;
61483;SDS011;47349;55.640;37.692;2022-09-09T16:35:07;5.85;;;2.70;;
61483;SDS011;47349;55.640;37.692;2022-09-09T16:37:34;5.15;;;2.50;;
61483;SDS011;47349;55.640;37.692;2022-09-09T16:40:03;5.65;;;2.58;;
61483;SDS011;47349;55.640;37.692;2022-09-09T16:42:31;5.97;;;3.20;;
61483;SDS011;47349;55.640;37.692;2022-09-09T16:45:04;5.43;;;3.20;;
61483;SDS011;47349;55.640;37.692;2022-09-09T16:47:33;6.93;;;3.78;;
61483;SDS011;47349;55.640;37.692;2022-09-09T16:50:06;5.57;;;2.50;;
61483;SDS011;47349;55.640;37.692;2022-09-09T16:52:33;6.97;;;3.25;;
61483;SDS011;47349;55.640;37.692;2022-09-09T16:55:00;9.48;;;3.83;;
61483;SDS011;47349;55.640;37.692;2022-09-09T16:57:28;12.13;;;4.25;;
61483;SDS011;47349;55.640;37.692;2022-09-09T16:59:56;4.95;;;2.85;;
61483;SDS011;47349;55.640;37.692;2022-09-09T17:02:27;9.55;;;4.15;;
61483;SDS011;47349;55.640;37.692;2022-09-09T17:04:55;5.90;;;2.75;;
61483;SDS011;47349;55.640;37.692;2022-09-09T17:07:28;9.02;;;3.08;;
61483;SDS011;47349;55.640;37.692;2022-09-09T17:10:10;8.60;;;2.90;;
61483;SDS011;47349;55.640;37.692;2022-09-09T17:12:37;6.70;;;2.80;;
61483;SDS011;47349;55.640;37.692;2022-09-09T17:15:08;8.02;;;3.00;;
61483;SDS011;47349;55.640;37.692;2022-09-09T17:17:35;8.23;;;2.88;;
61483;SDS011;47349;55.640;37.692;2022-09-09T17:20:03;6.80;;;2.88;;
61483;SDS011;47349;55.640;37.692;2022-09-09T17:22:42;4.47;;;2.30;;
61483;SDS011;47349;55.640;37.692;2022-09-09T17:25:10;4.68;;;2.65;;
61483;SDS011;47349;55.640;37.692;2022-09-09T17:27:39;7.80;;;2.50;;
61483;SDS011;47349;55.640;37.692;2022-09-09T17:30:07;5.07;;;2.40;;
61483;SDS011;47349;55.640;37.692;2022-09-09T17:32:49;5.82;;;2.45;;
61483;SDS011;47349;55.640;37.692;2022-09-09T17:35:30;5.82;;;3.17;;
61483;SDS011;47349;55.640;37.692;2022-09-09T17:37:58;6.53;;;3.10;;
61483;SDS011;47349;55.640;37.692;2022-09-09T17:40:35;3.80;;;2.40;;